Time;durP1;ratioP1;P1;durP2;ratioP2;P2;SDS_P1;SDS_P2;PMS_P1;PMS_P2;Temp;Humidity;BMP_temperature;BMP_pressure;BME280_temperature;BME280_humidity;BME280_pressure;Samples;Min_cycle;Max_cycle;Signal;HPM_P1;HPM_P2
2022/11/27 00:01:27;;;;;;;9.00;5.60;;;6.80;99.90;;;6.98;nan;101920.91;4991049;28;20970;-64
2022/11/27 00:03:55;;;;;;;8.40;5.77;;;6.80;99.90;;;6.91;nan;101909.91;4991195;28;20639;-64
2022/11/27 00:06:25;;;;;;;9.57;5.67;;;6.80;99.90;;;6.87;nan;101907.47;4990387;28;20624;-64
2022/11/27 00:08:54;;;;;;;11.10;6.50;;;6.70;99.90;;;6.92;nan;101893.41;4975341;28;20704;-65
2022/11/27 00:11:24;;;;;;;9.37;5.67;;;6.70;99.90;;;6.82;nan;101892.06;4990138;28;20622;-65
2022/11/27 00:13:51;;;;;;;6.80;4.40;;;6.70;99.90;;;6.81;nan;101889.53;4995138;28;20631;-65
2022/11/27 00:16:20;;;;;;;6.80;4.73;;;6.60;99.90;;;6.73;nan;101894.16;4991548;28;20654;-64
2022/11/27 00:18:48;;;;;;;7.50;5.53;;;6.60;99.90;;;6.62;nan;101885.91;4992069;28;20635;-65
2022/11/27 00:21:23;;;;;;;9.60;5.40;;;6.50;99.90;;;6.54;nan;101880.16;5001401;28;20673;-65
2022/11/27 00:23:52;;;;;;;6.57;4.40;;;6.50;99.90;;;6.49;nan;101879.47;4992719;28;21054;-65
2022/11/27 00:26:21;;;;;;;11.83;5.03;;;6.40;99.90;;;6.43;nan;101877.09;5014781;28;20675;-64
2022/11/27 00:28:49;;;;;;;6.87;4.43;;;6.40;99.90;;;6.43;nan;101869.31;4989134;28;20669;-65
2022/11/27 00:31:28;;;;;;;7.80;4.87;;;6.30;99.90;;;6.40;nan;101866.81;4993166;28;20642;-64
2022/11/27 00:34:05;;;;;;;11.93;5.43;;;6.30;99.90;;;6.32;nan;101864.50;4977639;28;20648;-64
2022/11/27 00:36:34;;;;;;;12.10;6.07;;;6.20;99.90;;;6.28;nan;101855.97;5013790;28;20720;-64
2022/11/27 00:39:01;;;;;;;11.03;5.87;;;6.20;99.90;;;6.34;nan;101854.06;5001244;28;20680;-65
2022/11/27 00:41:29;;;;;;;6.63;4.30;;;6.10;99.90;;;6.24;nan;101851.78;4981564;28;20647;-65
2022/11/27 00:43:56;;;;;;;14.03;6.60;;;6.10;99.90;;;6.28;nan;101838.75;4986755;28;20635;-65
2022/11/27 00:46:28;;;;;;;9.17;5.50;;;6.10;99.90;;;6.21;nan;101840.69;4993683;28;20643;-65
2022/11/27 00:49:01;;;;;;;11.00;5.57;;;6.10;99.90;;;6.19;nan;101848.53;4987345;28;21061;-65
2022/11/27 00:51:29;;;;;;;12.87;6.23;;;6.10;99.90;;;6.18;nan;101849.41;4994086;28;20626;-65
2022/11/27 00:53:57;;;;;;;10.07;5.67;;;6.10;99.90;;;6.19;nan;101845.09;4973812;28;20631;-64
2022/11/27 00:56:28;;;;;;;9.37;5.70;;;6.00;99.90;;;6.19;nan;101848.53;4986533;28;20666;-65
2022/11/27 00:58:56;;;;;;;7.00;5.40;;;6.00;99.90;;;6.18;nan;101857.19;4994079;28;20715;-64
2022/11/27 01:01:27;;;;;;;10.83;6.43;;;6.00;99.90;;;6.16;nan;101852.97;4990470;28;20643;-65
2022/11/27 01:03:57;;;;;;;7.40;5.17;;;6.00;99.90;;;6.20;nan;101847.63;4992573;28;20634;-64
2022/11/27 01:06:25;;;;;;;8.80;5.70;;;6.00;99.90;;;6.10;nan;101846.25;4993501;28;20630;-65
2022/11/27 01:08:53;;;;;;;13.00;5.40;;;5.90;99.90;;;6.12;nan;101848.78;4994394;28;20630;-64
2022/11/27 01:11:25;;;;;;;9.17;5.80;;;5.90;99.90;;;6.11;nan;101840.16;4993581;28;21269;-64
2022/11/27 01:13:55;;;;;;;10.50;5.70;;;5.90;99.90;;;6.00;nan;101834.53;4994861;28;20661;-65
2022/11/27 01:16:25;;;;;;;6.50;4.87;;;5.90;99.90;;;6.03;nan;101833.53;4992164;28;20697;-64
2022/11/27 01:18:56;;;;;;;8.57;5.50;;;5.90;99.90;;;6.00;nan;101829.34;4995744;28;21198;-64
2022/11/27 01:21:25;;;;;;;12.13;5.37;;;5.80;99.90;;;6.02;nan;101830.13;4975580;28;20631;-65
2022/11/27 01:23:53;;;;;;;7.80;5.10;;;5.80;99.90;;;5.99;nan;101838.00;4988586;28;20677;-64
2022/11/27 01:26:21;;;;;;;8.67;5.13;;;5.80;99.90;;;6.00;nan;101833.66;4994357;28;20615;-65
2022/11/27 01:28:52;;;;;;;9.20;5.00;;;5.80;99.90;;;5.93;nan;101833.03;4998324;28;20639;-64
2022/11/27 01:31:22;;;;;;;7.77;4.40;;;5.80;99.90;;;5.89;nan;101831.44;4994459;28;20631;-64
2022/11/27 01:33:58;;;;;;;4.40;3.80;;;5.80;99.90;;;5.75;nan;101831.00;4993737;28;20650;-64
2022/11/27 01:36:26;;;;;;;9.60;5.47;;;5.70;99.90;;;5.73;nan;101826.78;4992889;28;20662;-65
2022/11/27 01:38:53;;;;;;;8.55;5.65;;;5.60;99.90;;;5.65;nan;101832.19;4992805;28;20634;-65
2022/11/27 01:41:26;;;;;;;5.97;4.80;;;5.60;99.90;;;5.74;nan;101825.88;4993424;28;20617;-65
2022/11/27 01:44:24;;;;;;;6.30;4.03;;;5.60;99.90;;;5.70;nan;101826.88;4992270;28;20673;-65
2022/11/27 01:47:14;;;;;;;10.27;5.30;;;5.60;99.90;;;5.64;nan;101832.25;4992422;28;20634;-64
2022/11/27 01:49:49;;;;;;;9.10;5.70;;;5.50;99.90;;;5.67;nan;101826.97;5009708;28;20637;-64
2022/11/27 01:52:30;;;;;;;10.53;6.07;;;5.50;99.90;;;5.61;nan;101820.25;4984620;28;20638;-64
2022/11/27 01:55:19;;;;;;;7.47;4.10;;;5.50;99.90;;;5.52;nan;101823.13;4972992;28;20670;-65
2022/11/27 01:57:51;;;;;;;12.00;6.07;;;5.40;99.90;;;5.38;nan;101822.75;4973787;28;20670;-65
2022/11/27 02:00:19;;;;;;;12.70;6.73;;;5.40;99.90;;;5.42;nan;101829.50;4998596;28;20203;-65
2022/11/27 02:02:47;;;;;;;13.93;6.77;;;5.30;99.90;;;5.53;nan;101832.63;4992898;28;20646;-64
2022/11/27 02:05:19;;;;;;;7.80;5.23;;;5.40;99.90;;;5.56;nan;101837.66;4992434;28;20693;-64
2022/11/27 02:07:47;;;;;;;11.23;5.87;;;5.40;99.90;;;5.58;nan;101832.47;4994227;28;20629;-65
2022/11/27 02:10:16;;;;;;;8.98;4.88;;;5.40;99.90;;;5.59;nan;101827.22;4990525;28;20636;-65
2022/11/27 02:12:48;;;;;;;11.07;5.97;;;5.40;99.90;;;5.57;nan;101823.00;5001769;28;20242;-65
2022/11/27 02:15:40;;;;;;;6.40;3.80;;;5.40;99.90;;;5.55;nan;101815.28;5006360;23;20690;-66
2022/11/27 02:18:38;;;;;;;7.85;5.50;;;5.40;99.90;;;5.61;nan;101799.53;5006953;28;21190;-64
2022/11/27 02:21:33;;;;;;;5.33;3.27;;;5.40;99.90;;;5.43;nan;101818.28;4991978;28;20208;-64
2022/11/27 02:24:12;;;;;;;6.87;4.37;;;5.40;99.90;;;5.50;nan;101823.19;4992846;28;20639;-64
2022/11/27 02:27:42;;;;;;;7.60;5.07;;;5.40;99.90;;;5.48;nan;101821.53;4971739;28;21019;-63
2022/11/27 02:30:10;;;;;;;4.55;3.85;;;5.40;99.90;;;5.45;nan;101819.06;4917109;29;20217;-64
2022/11/27 02:32:48;;;;;;;5.93;4.70;;;5.30;99.90;;;5.37;nan;101824.47;4971733;28;20263;-64
2022/11/27 02:35:30;;;;;;;5.38;4.22;;;5.30;99.90;;;5.33;nan;101822.03;4972586;28;20309;-64
2022/11/27 02:38:48;;;;;;;7.35;4.53;;;5.30;99.90;;;5.26;nan;101828.31;4973362;28;20215;-64
2022/11/27 02:41:25;;;;;;;7.78;4.10;;;5.20;99.90;;;5.31;nan;101823.81;4922998;28;20542;-64
2022/11/27 02:43:54;;;;;;;7.47;4.05;;;5.20;99.90;;;5.28;nan;101822.16;4987454;28;20207;-64
2022/11/27 02:46:21;;;;;;;7.87;5.50;;;5.20;99.90;;;5.26;nan;101810.19;4986069;28;20740;-64
2022/11/27 02:48:56;;;;;;;4.82;3.85;;;5.20;99.90;;;5.21;nan;101804.31;4955102;28;20643;-63
2022/11/27 02:51:37;;;;;;;5.82;3.40;;;5.20;99.90;;;5.07;nan;101802.13;4950010;28;20844;-63
2022/11/27 02:54:11;;;;;;;4.07;3.70;;;5.10;99.90;;;5.02;nan;101798.00;4954640;28;20204;-63
2022/11/27 02:56:41;;;;;;;5.68;4.35;;;5.10;99.90;;;4.99;nan;101791.19;4955778;28;20655;-64
2022/11/27 02:59:12;;;;;;;7.00;4.47;;;5.00;99.90;;;4.98;nan;101778.31;4954396;28;20567;-64
2022/11/27 03:01:45;;;;;;;4.78;3.67;;;5.00;99.90;;;4.94;nan;101769.78;4970521;28;20215;-65
2022/11/27 03:04:17;;;;;;;5.57;4.03;;;4.90;99.90;;;4.80;nan;101773.69;4969464;28;20201;-64
2022/11/27 03:06:52;;;;;;;6.82;4.35;;;4.90;99.90;;;4.78;nan;101772.88;4972250;28;20219;-63
2022/11/27 03:09:43;;;;;;;6.28;3.70;;;4.80;99.90;;;4.79;nan;101780.63;4954944;28;20211;-64
2022/11/27 03:12:13;;;;;;;7.30;3.70;;;4.80;99.90;;;4.76;nan;101774.66;4970509;28;20211;-65
2022/11/27 03:14:41;;;;;;;7.50;4.10;;;4.70;99.90;;;4.74;nan;101782.47;4971526;28;20242;-65
2022/11/27 03:17:45;;;;;;;11.05;4.25;;;4.70;99.90;;;4.68;nan;101788.66;4987097;28;20605;-64
2022/11/27 03:20:32;;;;;;;3.63;3.20;;;4.70;99.90;;;4.77;nan;101782.38;4970806;28;20238;-62
2022/11/27 03:22:59;;;;;;;6.40;4.40;;;4.70;99.90;;;4.72;nan;101773.91;4969950;28;20211;-65
2022/11/27 03:25:26;;;;;;;9.50;5.50;;;4.70;99.90;;;4.68;nan;101785.25;4985810;28;20243;-65
2022/11/27 03:28:01;;;;;;;8.05;4.82;;;4.60;99.90;;;4.75;nan;101783.34;4955304;28;20221;-65
2022/11/27 03:30:29;;;;;;;4.43;3.22;;;4.60;99.90;;;4.71;nan;101770.47;4985739;28;20260;-65
2022/11/27 03:32:56;;;;;;;5.35;4.15;;;4.60;99.90;;;4.63;nan;101761.25;4970893;28;20218;-64
2022/11/27 03:35:25;;;;;;;12.32;5.15;;;4.60;99.90;;;4.68;nan;101773.16;4971491;28;20234;-65
2022/11/27 03:37:53;;;;;;;7.50;5.00;;;4.60;99.90;;;4.63;nan;101769.88;4983707;28;20672;-66
2022/11/27 03:40:28;;;;;;;8.23;5.18;;;4.50;99.90;;;4.62;nan;101757.00;4953338;28;20885;-65
2022/11/27 03:43:10;;;;;;;5.72;3.75;;;4.50;99.90;;;4.46;nan;101756.59;4992150;28;20211;-65
2022/11/27 03:46:07;;;;;;;5.18;2.83;;;4.50;99.90;;;4.61;nan;101755.28;4986484;28;20266;-65
2022/11/27 03:48:42;;;;;;;6.55;4.03;;;4.50;99.90;;;4.54;nan;101754.63;4986623;28;20212;-65
2022/11/27 03:51:39;;;;;;;8.27;5.55;;;4.50;99.90;;;4.58;nan;101757.94;4985987;28;20211;-64
2022/11/27 03:54:15;;;;;;;7.03;4.25;;;4.50;99.90;;;4.45;nan;101762.63;4963905;28;20257;-66
2022/11/27 03:56:52;;;;;;;8.65;4.90;;;4.50;99.90;;;4.39;nan;101770.56;4970701;28;20276;-65
2022/11/27 03:59:26;;;;;;;8.88;4.60;;;4.40;99.90;;;4.48;nan;101770.31;4951238;29;20743;-65
2022/11/27 04:01:53;;;;;;;4.22;3.30;;;4.40;99.90;;;4.58;nan;101761.41;4968111;28;20204;-65
2022/11/27 04:04:20;;;;;;;2.97;2.65;;;4.50;99.90;;;4.51;nan;101757.31;4970560;28;20213;-65
2022/11/27 04:06:47;;;;;;;5.45;2.55;;;4.50;99.90;;;4.50;nan;101753.03;4969460;28;20675;-65
2022/11/27 04:09:14;;;;;;;2.08;1.73;;;4.50;99.90;;;4.24;nan;101750.34;4971825;28;20215;-65
2022/11/27 04:11:40;;;;;;;3.55;1.55;;;4.40;99.90;;;4.10;nan;101751.59;4970707;28;20265;-65
2022/11/27 04:14:07;;;;;;;1.98;1.88;;;4.20;99.90;;;4.02;nan;101753.56;4972620;28;20210;-66
2022/11/27 04:16:34;;;;;;;2.88;2.15;;;4.10;99.90;;;4.04;nan;101754.38;4970210;28;20738;-65
2022/11/27 04:19:01;;;;;;;8.38;5.32;;;4.10;99.90;;;4.01;nan;101752.72;4954794;28;20198;-65
2022/11/27 04:21:29;;;;;;;4.20;3.80;;;4.00;99.90;;;4.07;nan;101747.38;4952930;28;20671;-65
2022/11/27 04:23:55;;;;;;;5.07;3.60;;;4.00;99.90;;;4.07;nan;101749.94;4971705;28;20580;-65
2022/11/27 04:26:23;;;;;;;6.13;4.35;;;4.00;99.90;;;3.97;nan;101756.25;4970409;28;20234;-65
2022/11/27 04:28:50;;;;;;;10.27;5.22;;;4.00;99.90;;;4.05;nan;101753.47;4971475;28;20209;-64
2022/11/27 04:31:17;;;;;;;2.72;2.05;;;4.00;99.90;;;4.09;nan;101750.75;4969957;28;20223;-67
2022/11/27 04:33:44;;;;;;;1.13;0.75;;;4.00;99.90;;;3.75;nan;101737.91;4970859;28;20218;-65
2022/11/27 04:36:11;;;;;;;0.45;0.45;;;3.90;99.90;;;3.58;nan;101734.06;4970298;28;20759;-66
2022/11/27 04:38:38;;;;;;;1.85;1.35;;;3.80;99.90;;;3.45;nan;101719.81;4984900;28;20213;-64
2022/11/27 04:41:05;;;;;;;2.75;1.70;;;3.70;99.90;;;3.65;nan;101720.97;4970760;28;20206;-64
2022/11/27 04:43:32;;;;;;;4.40;3.13;;;3.70;99.90;;;3.55;nan;101716.97;4970558;28;20272;-64
2022/11/27 04:45:59;;;;;;;2.75;1.50;;;3.70;99.90;;;3.47;nan;101712.88;4954713;28;20229;-64
2022/11/27 04:48:26;;;;;;;0.75;0.57;;;3.60;99.90;;;3.51;nan;101714.50;4970481;28;20563;-64
2022/11/27 04:50:54;;;;;;;2.08;1.85;;;3.60;99.90;;;3.64;nan;101719.28;4954016;28;20232;-65
2022/11/27 04:53:21;;;;;;;2.42;2.25;;;3.70;99.90;;;3.73;nan;101715.59;4970893;28;20213;-65
2022/11/27 04:55:51;;;;;;;2.17;2.03;;;3.70;99.90;;;3.59;nan;101725.44;4970942;28;20237;-65
2022/11/27 04:58:18;;;;;;;0.70;0.70;;;3.70;99.90;;;3.64;nan;101729.59;4953671;28;20575;-65
2022/11/27 05:00:45;;;;;;;1.67;1.58;;;3.60;99.90;;;3.49;nan;101724.81;4969894;28;20232;-66
2022/11/27 05:03:12;;;;;;;2.25;1.35;;;3.60;99.90;;;3.55;nan;101727.28;4969032;28;20211;-64
2022/11/27 05:05:39;;;;;;;1.23;1.13;;;3.60;99.90;;;3.32;nan;101723.56;4967555;28;20228;-64
2022/11/27 05:08:06;;;;;;;2.50;1.80;;;3.50;99.90;;;3.24;nan;101725.50;4959087;28;20250;-65
2022/11/27 05:10:33;;;;;;;1.33;1.20;;;3.40;99.90;;;3.01;nan;101719.16;4972986;28;20200;-64
2022/11/27 05:13:00;;;;;;;0.93;0.90;;;3.30;99.90;;;3.05;nan;101719.91;4974279;28;20205;-64
2022/11/27 05:15:27;;;;;;;5.97;2.70;;;3.30;99.90;;;3.09;nan;101713.81;4952799;29;20228;-64
2022/11/27 05:17:53;;;;;;;1.52;1.35;;;3.30;99.90;;;3.13;nan;101711.13;4968835;28;20770;-64
2022/11/27 05:20:20;;;;;;;6.90;3.30;;;3.20;99.90;;;3.21;nan;101720.41;4972327;28;20256;-64
2022/11/27 05:22:48;;;;;;;0.93;0.90;;;3.30;99.90;;;3.23;nan;101728.97;4988551;28;20357;-64
2022/11/27 05:25:15;;;;;;;10.23;6.00;;;3.30;99.90;;;3.38;nan;101729.44;4973857;28;20220;-64
2022/11/27 05:27:42;;;;;;;6.43;4.32;;;3.30;99.90;;;3.35;nan;101728.66;4957313;28;20219;-64
2022/11/27 05:30:09;;;;;;;2.95;2.75;;;3.40;99.90;;;3.39;nan;101713.06;4988148;28;20208;-64
2022/11/27 05:32:37;;;;;;;2.10;1.20;;;3.30;99.90;;;3.30;nan;101715.03;4957217;28;20224;-64
2022/11/27 05:35:04;;;;;;;1.50;1.40;;;3.40;99.90;;;3.43;nan;101716.44;4967448;28;20225;-64
2022/11/27 05:37:31;;;;;;;2.08;1.77;;;3.40;99.90;;;3.39;nan;101725.09;4973366;28;20248;-64
2022/11/27 05:39:58;;;;;;;4.00;2.05;;;3.40;99.90;;;3.24;nan;101720.34;4972258;28;20767;-64
2022/11/27 05:42:25;;;;;;;3.53;1.65;;;3.30;99.90;;;2.97;nan;101708.94;4973645;28;20452;-64
2022/11/27 05:44:52;;;;;;;2.15;1.95;;;3.20;99.90;;;2.95;nan;101706.41;4973616;28;20291;-64
2022/11/27 05:47:24;;;;;;;4.82;2.65;;;3.20;99.90;;;3.09;nan;101706.94;4974072;28;20215;-65
2022/11/27 05:49:51;;;;;;;1.52;1.05;;;3.10;99.90;;;3.07;nan;101710.41;4956828;28;20204;-64
2022/11/27 05:52:18;;;;;;;2.08;1.35;;;3.10;99.90;;;3.29;nan;101711.59;4987644;28;20209;-65
2022/11/27 05:54:45;;;;;;;2.80;2.25;;;3.20;99.90;;;3.26;nan;101703.94;4971020;28;20220;-64
2022/11/27 05:57:11;;;;;;;4.05;1.95;;;3.30;99.90;;;3.11;nan;101701.72;4956027;28;20225;-64
2022/11/27 05:59:38;;;;;;;1.52;1.27;;;3.20;99.90;;;3.10;nan;101705.19;4955107;28;20416;-64
2022/11/27 06:02:05;;;;;;;2.05;1.88;;;3.20;99.90;;;3.22;nan;101714.34;4973716;28;20707;-64
2022/11/27 06:04:33;;;;;;;3.00;1.85;;;3.30;99.90;;;3.32;nan;101716.69;4972764;28;20234;-64
2022/11/27 06:07:00;;;;;;;2.38;1.92;;;3.30;99.90;;;3.34;nan;101706.31;4972889;28;20216;-65
2022/11/27 06:09:27;;;;;;;1.77;0.40;;;3.30;99.90;;;3.40;nan;101712.19;4972110;28;20235;-65
2022/11/27 06:11:54;;;;;;;5.55;2.17;;;3.40;99.90;;;3.21;nan;101712.69;4970804;28;20214;-65
2022/11/27 06:14:22;;;;;;;2.53;1.92;;;3.40;99.90;;;3.19;nan;101711.88;4955851;28;20216;-66
2022/11/27 06:16:48;;;;;;;5.47;2.65;;;3.30;99.90;;;3.39;nan;101714.78;4971523;28;20248;-66
2022/11/27 06:19:15;;;;;;;1.83;1.55;;;3.30;99.90;;;3.41;nan;101711.28;4973809;28;20695;-65
2022/11/27 06:21:45;;;;;;;0.88;0.88;;;3.40;99.90;;;3.39;nan;101697.56;4954079;28;20255;-66
2022/11/27 06:24:12;;;;;;;2.50;2.00;;;3.40;99.90;;;3.32;nan;101690.91;4973536;28;20205;-66
2022/11/27 06:26:39;;;;;;;1.88;1.75;;;3.40;99.90;;;3.49;nan;101693.88;4973403;28;20211;-66
2022/11/27 06:29:06;;;;;;;1.33;1.30;;;3.40;99.90;;;3.42;nan;101694.94;4954529;28;20278;-66
2022/11/27 06:31:33;;;;;;;1.20;1.20;;;3.50;99.90;;;3.37;nan;101688.19;4952382;28;20559;-66
2022/11/27 06:34:01;;;;;;;0.75;0.60;;;3.50;99.90;;;3.31;nan;101686.59;4961936;28;20260;-66
2022/11/27 06:36:34;;;;;;;1.88;0.88;;;3.40;99.90;;;3.32;nan;101685.75;4973819;28;20224;-66
2022/11/27 06:39:03;;;;;;;1.05;0.95;;;3.40;99.90;;;3.27;nan;101679.00;4953996;28;20251;-65
2022/11/27 06:41:31;;;;;;;1.42;0.98;;;3.40;99.90;;;3.23;nan;101672.22;4973741;28;20204;-65
2022/11/27 06:43:59;;;;;;;0.55;0.55;;;3.40;99.90;;;3.42;nan;101665.69;4971008;28;20205;-66
2022/11/27 06:46:27;;;;;;;1.35;1.25;;;3.40;99.90;;;3.45;nan;101669.03;4951823;28;20238;-66
2022/11/27 06:48:56;;;;;;;1.38;1.05;;;3.50;99.90;;;3.58;nan;101679.88;4957213;28;20197;-64
2022/11/27 06:51:27;;;;;;;2.55;1.83;;;3.50;99.90;;;3.68;nan;101686.50;4979427;28;20209;-65
2022/11/27 06:53:55;;;;;;;1.13;1.00;;;3.60;99.90;;;3.78;nan;101693.09;4968646;28;20209;-66
2022/11/27 06:56:25;;;;;;;4.80;3.28;;;3.60;99.90;;;3.88;nan;101686.78;4973134;28;20763;-66
2022/11/27 06:58:55;;;;;;;0.93;0.93;;;3.70;99.90;;;4.01;nan;101687.28;4954633;28;20201;-65
2022/11/27 07:01:24;;;;;;;0.50;0.50;;;3.80;99.90;;;3.88;nan;101661.81;4966819;28;20614;-64
2022/11/27 07:03:51;;;;;;;1.40;1.30;;;3.80;99.90;;;3.78;nan;101652.66;4965265;28;20275;-65
2022/11/27 07:06:23;;;;;;;2.58;1.73;;;3.80;99.90;;;3.77;nan;101648.38;4971345;28;20225;-65
2022/11/27 07:08:52;;;;;;;1.55;1.08;;;3.80;99.90;;;3.66;nan;101647.81;4971699;28;20209;-65
2022/11/27 07:11:22;;;;;;;1.13;1.10;;;3.80;99.90;;;3.67;nan;101648.66;4952682;29;20210;-66
2022/11/27 07:13:50;;;;;;;1.15;1.00;;;3.80;99.90;;;3.77;nan;101656.09;4956911;28;20231;-66
2022/11/27 07:16:17;;;;;;;0.90;0.90;;;3.70;99.90;;;3.65;nan;101646.13;4969587;28;20241;-66
2022/11/27 07:18:48;;;;;;;1.83;1.70;;;3.70;99.90;;;3.76;nan;101630.34;4967042;28;20205;-64
2022/11/27 07:21:16;;;;;;;1.38;1.23;;;3.70;99.90;;;3.73;nan;101639.00;4954924;28;20210;-65
2022/11/27 07:23:44;;;;;;;1.52;1.45;;;3.80;99.90;;;3.61;nan;101629.03;4955205;28;20217;-64
2022/11/27 07:26:15;;;;;;;0.65;0.65;;;3.70;99.90;;;3.73;nan;101625.25;4972169;28;20229;-65
2022/11/27 07:28:43;;;;;;;1.63;1.50;;;3.80;99.90;;;3.84;nan;101621.50;4955120;28;20463;-65
2022/11/27 07:31:12;;;;;;;2.10;1.17;;;3.80;99.90;;;3.87;nan;101636.91;4954512;28;20259;-65
2022/11/27 07:33:39;;;;;;;2.42;2.03;;;3.80;99.90;;;3.99;nan;101645.16;4971590;28;20205;-65
2022/11/27 07:36:16;;;;;;;1.63;1.52;;;3.90;99.90;;;4.22;nan;101668.59;4953949;28;20235;-65
2022/11/27 07:38:44;;;;;;;3.80;2.15;;;4.00;99.90;;;4.40;nan;101668.91;4971113;28;20213;-65
2022/11/27 07:41:13;;;;;;;4.50;3.00;;;4.10;99.90;;;4.47;nan;101665.22;4953537;28;20221;-65
2022/11/27 07:43:41;;;;;;;5.95;3.75;;;4.20;99.90;;;4.50;nan;101664.28;4970194;28;20288;-65
2022/11/27 07:46:29;;;;;;;1.85;1.75;;;4.20;99.90;;;4.40;nan;101658.59;4962710;28;20230;-66
2022/11/27 07:48:56;;;;;;;1.30;1.30;;;4.30;99.90;;;4.20;nan;101635.06;4954361;28;20219;-66
2022/11/27 07:51:23;;;;;;;2.67;2.40;;;4.30;99.90;;;4.38;nan;101636.25;4970934;28;20213;-65
2022/11/27 07:53:51;;;;;;;1.95;1.50;;;4.30;99.90;;;4.37;nan;101637.13;4935451;29;20743;-65
2022/11/27 07:56:18;;;;;;;3.22;1.20;;;4.30;99.90;;;4.33;nan;101641.56;4970355;28;20304;-65
2022/11/27 07:58:46;;;;;;;2.53;1.77;;;4.30;99.90;;;4.41;nan;101631.81;4971143;28;20651;-65
2022/11/27 08:01:16;;;;;;;3.10;1.92;;;4.30;99.90;;;4.52;nan;101619.44;4970526;28;20200;-65
2022/11/27 08:03:44;;;;;;;2.95;1.23;;;4.40;99.90;;;4.43;nan;101622.28;4986156;28;20206;-65
2022/11/27 08:06:25;;;;;;;4.25;1.05;;;4.40;99.90;;;4.36;nan;101597.56;4985776;28;20230;-65
2022/11/27 08:08:56;;;;;;;0.40;0.40;;;4.40;99.90;;;4.37;nan;101581.13;4953154;28;20211;-66
2022/11/27 08:11:31;;;;;;;2.20;1.70;;;4.40;99.90;;;4.50;nan;101574.69;4950213;28;20207;-66
2022/11/27 08:14:04;;;;;;;3.70;2.10;;;4.50;99.90;;;4.38;nan;101575.09;4968117;28;20220;-66
2022/11/27 08:16:33;;;;;;;1.92;1.75;;;4.40;99.90;;;4.48;nan;101571.31;4993672;23;20233;-64
2022/11/27 08:19:01;;;;;;;2.47;1.75;;;4.50;99.90;;;4.55;nan;101578.00;4952636;28;20214;-65
2022/11/27 08:21:29;;;;;;;4.53;3.15;;;4.50;99.90;;;4.70;nan;101593.00;4970626;28;20250;-65
2022/11/27 08:23:57;;;;;;;3.45;2.08;;;4.60;99.90;;;4.82;nan;101598.66;4971108;28;20269;-67
2022/11/27 08:26:26;;;;;;;2.58;2.38;;;4.60;99.90;;;4.96;nan;101593.88;4967487;28;20227;-64
2022/11/27 08:28:54;;;;;;;5.03;2.75;;;4.70;99.90;;;5.09;nan;101587.41;4971226;28;20213;-64
2022/11/27 08:31:21;;;;;;;2.40;2.20;;;4.80;99.90;;;5.15;nan;101600.13;4969498;28;20204;-64
2022/11/27 08:33:49;;;;;;;4.05;2.88;;;4.90;99.90;;;5.34;nan;101599.44;4969651;28;20219;-64
2022/11/27 08:36:16;;;;;;;7.90;4.22;;;5.00;99.90;;;5.55;nan;101602.16;4985231;28;20289;-64
2022/11/27 08:38:45;;;;;;;5.10;4.15;;;5.10;99.90;;;5.74;nan;101592.81;4970476;28;20511;-64
2022/11/27 08:41:13;;;;;;;4.97;3.88;;;5.20;99.90;;;5.87;nan;101592.34;4968540;28;20602;-64
2022/11/27 08:43:40;;;;;;;8.43;5.78;;;5.30;99.90;;;6.04;nan;101595.16;4971631;28;20211;-67
2022/11/27 08:46:07;;;;;;;6.20;3.53;;;5.40;99.90;;;6.07;nan;101587.25;4974869;28;20228;-65
2022/11/27 08:48:34;;;;;;;5.43;3.33;;;5.50;99.90;;;6.24;nan;101589.16;4974598;28;20700;-65
2022/11/27 08:51:12;;;;;;;5.10;4.17;;;5.70;99.90;;;6.32;nan;101581.97;4974806;28;20643;-67
2022/11/27 08:53:40;;;;;;;4.77;3.23;;;5.80;99.90;;;6.42;nan;101592.81;4975108;28;20650;-64
2022/11/27 08:56:13;;;;;;;7.40;4.37;;;5.90;99.90;;;6.65;nan;101596.16;4991639;28;20729;-65
2022/11/27 08:58:40;;;;;;;6.70;4.20;;;6.00;99.90;;;7.08;nan;101600.44;4973424;28;20702;-65
2022/11/27 09:01:17;;;;;;;5.03;3.97;;;6.20;99.90;;;7.49;nan;101599.50;4975633;28;21203;-66
2022/11/27 09:03:44;;;;;;;8.17;3.77;;;6.50;99.90;;;8.11;nan;101591.47;4972237;28;20631;-66
2022/11/27 09:06:20;;;;;;;18.67;8.37;;;6.90;99.90;;;8.48;nan;101570.63;4973241;28;20694;-65
2022/11/27 09:08:48;;;;;;;3.77;2.80;;;7.30;99.90;;;8.35;nan;101568.69;4966743;28;20649;-67
2022/11/27 09:11:18;;;;;;;5.87;3.80;;;7.50;99.90;;;8.28;nan;101562.09;4973260;28;20635;-65
2022/11/27 09:13:45;;;;;;;5.70;3.30;;;7.50;99.90;;;8.19;nan;101558.16;4969622;28;20653;-64
2022/11/27 09:16:19;;;;;;;2.43;2.23;;;7.60;99.90;;;8.71;nan;101560.88;4970348;28;20671;-64
2022/11/27 09:18:49;;;;;;;5.77;3.97;;;7.80;99.90;;;8.91;nan;101566.75;4975391;28;20675;-65
2022/11/27 09:21:19;;;;;;;3.77;2.97;;;8.10;99.90;;;8.64;nan;101567.28;4973757;28;21214;-64
2022/11/27 09:23:47;;;;;;;5.07;3.37;;;8.10;99.90;;;8.70;nan;101562.63;4976451;28;20703;-65
2022/11/27 09:26:16;;;;;;;3.03;2.40;;;8.10;99.90;;;9.16;nan;101561.13;4981302;28;20689;-65
2022/11/27 09:28:43;;;;;;;6.00;3.83;;;8.20;99.90;;;9.30;nan;101554.31;4967829;28;21286;-63
2022/11/27 09:31:13;;;;;;;5.67;3.80;;;8.40;99.90;;;9.56;nan;101565.13;4963823;28;21207;-66
2022/11/27 09:33:42;;;;;;;7.10;3.50;;;8.50;99.90;;;9.52;nan;101555.78;4974709;28;20643;-66
2022/11/27 09:36:13;;;;;;;3.50;2.57;;;8.60;99.90;;;9.34;nan;101558.44;4973664;28;20667;-65
2022/11/27 09:38:41;;;;;;;5.13;3.50;;;8.60;99.90;;;9.35;nan;101560.09;4978901;28;20679;-65
2022/11/27 09:41:48;;;;;;;4.07;2.60;;;8.70;99.90;;;9.29;nan;101562.19;4970020;28;21221;-65
2022/11/27 09:44:41;;;;;;;2.07;1.40;;;8.70;99.90;;;8.43;nan;101554.38;4952477;29;20982;-65
2022/11/27 09:47:58;;;;;;;5.43;3.50;;;8.30;99.90;;;9.16;nan;101548.97;4992874;28;20637;-65
2022/11/27 09:50:49;;;;;;;3.53;3.23;;;8.40;99.90;;;9.68;nan;101546.22;4970278;28;20642;-64
2022/11/27 09:53:30;;;;;;;4.20;2.27;;;8.60;99.90;;;9.52;nan;101547.97;4953818;29;20651;-64
2022/11/27 09:55:58;;;;;;;2.97;2.70;;;8.80;99.90;;;9.87;nan;101541.69;4969569;28;20848;-64
2022/11/27 09:58:39;;;;;;;6.67;3.10;;;8.90;99.90;;;9.56;nan;101537.28;4974406;28;20741;-63
2022/11/27 10:01:17;;;;;;;2.87;2.50;;;8.90;99.90;;;9.54;nan;101538.31;4968545;28;20702;-65
2022/11/27 10:03:45;;;;;;;3.33;2.93;;;8.90;99.90;;;9.21;nan;101526.13;4972734;28;20635;-63
2022/11/27 10:07:07;;;;;;;4.20;3.00;;;8.80;99.90;;;9.15;nan;101521.25;4974307;28;20733;-65
2022/11/27 10:10:00;;;;;;;4.70;3.57;;;8.70;99.90;;;9.21;nan;101515.72;4965987;28;21056;-67
2022/11/27 10:12:35;;;;;;;6.00;3.23;;;8.70;99.90;;;8.98;nan;101510.88;4969355;28;20654;-66
2022/11/27 10:15:21;;;;;;;3.60;2.60;;;8.60;99.90;;;8.77;nan;101504.16;4975748;28;20673;-65
2022/11/27 10:18:14;;;;;;;3.97;2.90;;;8.50;99.90;;;8.68;nan;101494.22;4981514;28;20895;-65
2022/11/27 10:21:30;;;;;;;12.13;6.33;;;8.40;99.90;;;8.83;nan;101503.84;4972818;28;20704;-66
2022/11/27 10:24:40;;;;;;;5.00;3.40;;;8.30;99.90;;;8.91;nan;101491.28;4963713;28;20623;-65
2022/11/27 10:27:34;;;;;;;3.17;2.30;;;8.40;99.90;;;8.87;nan;101486.31;4962997;28;21070;-65
2022/11/27 10:30:14;;;;;;;2.60;2.13;;;8.30;99.90;;;9.07;nan;101476.53;4951685;28;20646;-64
2022/11/27 10:32:41;;;;;;;2.93;2.67;;;8.40;99.90;;;9.23;nan;101472.22;4972746;28;20705;-65
2022/11/27 10:35:28;;;;;;;5.53;2.90;;;8.50;99.90;;;9.23;nan;101471.38;4973517;28;20673;-62
2022/11/27 10:38:19;;;;;;;2.93;2.60;;;8.60;99.90;;;8.73;nan;101463.56;4975984;28;20678;-66
2022/11/27 10:41:03;;;;;;;3.93;1.87;;;8.60;99.90;;;8.63;nan;101458.91;4972964;28;20677;-65
2022/11/27 10:43:30;;;;;;;3.70;2.07;;;8.50;99.90;;;8.84;nan;101445.66;4976906;28;20640;-65
2022/11/27 10:46:10;;;;;;;4.90;3.07;;;8.50;99.90;;;9.17;nan;101453.47;4977766;28;21089;-65
2022/11/27 10:48:37;;;;;;;4.37;3.40;;;8.60;99.90;;;9.48;nan;101442.22;4969637;28;20640;-67
2022/11/27 10:51:21;;;;;;;3.30;2.87;;;8.70;99.90;;;9.12;nan;101445.91;4975729;28;21182;-64
2022/11/27 10:53:53;;;;;;;4.00;2.70;;;8.70;99.90;;;9.22;nan;101438.44;4953431;28;21009;-69
2022/11/27 10:56:55;;;;;;;4.63;2.77;;;8.80;99.90;;;9.12;nan;101419.88;4970729;28;20714;-65
2022/11/27 10:59:55;;;;;;;2.77;2.47;;;8.80;99.90;;;9.29;nan;101416.34;4981618;28;21015;-65
2022/11/27 11:02:31;;;;;;;3.23;2.93;;;8.90;99.90;;;9.27;nan;101413.84;4969505;28;20698;-65
2022/11/27 11:05:21;;;;;;;4.57;3.77;;;8.90;99.90;;;9.35;nan;101416.84;4968163;28;21312;-65